Time;durP1;ratioP1;P1;durP2;ratioP2;P2;SDS_P1;SDS_P2;PMS_P1;PMS_P2;Temp;Humidity;BMP_temperature;BMP_pressure;BME280_temperature;BME280_humidity;BME280_pressure;Samples;Min_cycle;Max_cycle;Signal;HPM_P1;HPM_P2
2023/01/16 00:01:28;;;;;;;4.25;1.33;;;5.60;99.90;;;;;;5087313;28;20037;-43
2023/01/16 00:03:54;;;;;;;3.90;1.13;;;5.60;99.90;;;;;;5087692;28;20028;-43
2023/01/16 00:06:20;;;;;;;5.22;1.30;;;5.60;99.90;;;;;;5087025;28;20042;-41
2023/01/16 00:08:47;;;;;;;4.47;1.80;;;5.60;99.90;;;;;;5087346;28;20123;-41
2023/01/16 00:11:13;;;;;;;4.45;1.38;;;5.60;99.90;;;;;;5084732;28;20020;-41
2023/01/16 00:13:39;;;;;;;2.75;1.35;;;5.60;99.90;;;;;;5087463;28;20023;-41
2023/01/16 00:16:06;;;;;;;2.33;1.00;;;5.50;99.90;;;;;;5086939;28;20020;-41
2023/01/16 00:18:31;;;;;;;1.65;1.10;;;5.50;99.90;;;;;;5087384;28;20020;-41
2023/01/16 00:20:57;;;;;;;5.32;1.30;;;5.50;99.90;;;;;;5087137;28;20402;-40
2023/01/16 00:23:22;;;;;;;5.70;1.80;;;5.50;99.90;;;;;;5087155;28;20451;-41
2023/01/16 00:25:48;;;;;;;2.00;0.98;;;5.50;99.90;;;;;;5086803;28;20024;-40
2023/01/16 00:28:15;;;;;;;5.15;1.75;;;5.50;99.90;;;;;;5087521;28;20081;-39
2023/01/16 00:30:42;;;;;;;6.25;1.40;;;5.50;99.90;;;;;;5087356;28;20099;-41
2023/01/16 00:33:07;;;;;;;7.05;1.80;;;5.50;99.90;;;;;;5085833;28;20028;-41
2023/01/16 00:35:33;;;;;;;5.72;3.17;;;5.60;99.90;;;;;;5086326;28;20024;-41
2023/01/16 00:37:59;;;;;;;4.28;1.80;;;5.60;99.90;;;;;;5086706;28;20021;-41
2023/01/16 00:40:25;;;;;;;6.18;2.08;;;5.60;99.90;;;;;;5087140;28;20063;-41
2023/01/16 00:42:50;;;;;;;10.27;2.67;;;5.60;99.90;;;;;;5086956;28;20356;-41
2023/01/16 00:45:16;;;;;;;6.18;2.72;;;5.70;99.90;;;;;;5087044;28;20020;-41
2023/01/16 00:47:42;;;;;;;6.97;3.10;;;5.60;99.90;;;;;;5087267;28;20046;-40
2023/01/16 00:50:08;;;;;;;6.13;2.45;;;5.60;99.90;;;;;;5087132;28;20028;-41
2023/01/16 00:52:34;;;;;;;8.90;2.72;;;5.60;99.90;;;;;;5084502;28;20020;-41
2023/01/16 00:54:59;;;;;;;7.10;2.08;;;5.60;99.90;;;;;;5089455;28;20047;-40
2023/01/16 00:57:25;;;;;;;5.82;2.08;;;5.50;99.90;;;;;;5090535;28;20024;-41
2023/01/16 00:59:50;;;;;;;6.38;1.95;;;5.50;99.90;;;;;;5090888;28;20095;-41
2023/01/16 01:02:16;;;;;;;6.50;1.92;;;5.40;99.90;;;;;;5091270;28;20024;-40
2023/01/16 01:04:42;;;;;;;6.43;2.08;;;5.40;99.90;;;;;;5090532;28;20061;-41
2023/01/16 01:07:07;;;;;;;4.60;1.65;;;5.30;99.90;;;;;;5090919;28;20773;-42
2023/01/16 01:09:33;;;;;;;3.53;1.30;;;5.40;99.90;;;;;;5090439;28;20035;-41
2023/01/16 01:11:59;;;;;;;4.15;1.63;;;5.30;99.90;;;;;;5090821;28;20196;-41
2023/01/16 01:14:25;;;;;;;7.00;1.77;;;5.30;99.90;;;;;;5089405;28;20161;-40
2023/01/16 01:16:50;;;;;;;3.53;1.38;;;5.40;99.90;;;;;;5090104;28;20135;-40
2023/01/16 01:19:16;;;;;;;3.08;1.33;;;5.40;99.90;;;;;;5090586;28;20020;-41
2023/01/16 01:21:42;;;;;;;5.38;1.40;;;5.40;99.90;;;;;;5090425;28;20481;-41
2023/01/16 01:24:08;;;;;;;6.47;3.20;;;5.40;99.90;;;;;;5090481;28;20016;-41
2023/01/16 01:26:33;;;;;;;4.90;1.50;;;5.40;99.90;;;;;;5089927;28;20016;-41
2023/01/16 01:28:59;;;;;;;5.38;1.20;;;5.30;99.90;;;;;;5090294;28;20027;-41
2023/01/16 01:31:24;;;;;;;2.47;1.40;;;5.30;99.90;;;;;;5090087;28;20040;-41
2023/01/16 01:33:50;;;;;;;4.35;1.13;;;5.30;99.90;;;;;;5090150;28;20114;-40
2023/01/16 01:36:15;;;;;;;7.57;1.30;;;5.40;99.90;;;;;;5089417;28;20112;-42
2023/01/16 01:38:41;;;;;;;3.60;1.20;;;5.30;99.90;;;;;;5089642;28;20069;-41
2023/01/16 01:41:07;;;;;;;3.10;1.17;;;5.30;99.90;;;;;;5089858;28;20051;-42
2023/01/16 01:43:51;;;;;;;1.98;1.15;;;5.40;99.90;;;;;;5090045;28;20022;-41
2023/01/16 01:46:41;;;;;;;6.70;1.60;;;5.50;99.90;;;;;;5087940;28;20030;-41
2023/01/16 01:49:25;;;;;;;1.80;0.95;;;5.50;99.90;;;;;;5089152;28;20022;-42
2023/01/16 01:51:53;;;;;;;4.55;1.10;;;5.40;99.90;;;;;;5088014;28;20031;-42
2023/01/16 01:54:24;;;;;;;1.85;1.10;;;5.40;99.90;;;;;;5089852;28;20031;-42
2023/01/16 01:57:02;;;;;;;6.63;1.40;;;5.40;99.90;;;;;;5089235;28;20037;-42
2023/01/16 01:59:33;;;;;;;3.33;1.20;;;5.40;99.90;;;;;;5089612;28;20024;-42
2023/01/16 02:02:00;;;;;;;5.60;1.40;;;5.40;99.90;;;;;;5087330;28;20020;-42
2023/01/16 02:04:30;;;;;;;5.65;1.17;;;5.40;99.90;;;;;;5088973;28;20415;-41
2023/01/16 02:06:59;;;;;;;5.15;1.77;;;5.40;99.90;;;;;;5087123;28;20028;-41
2023/01/16 02:09:25;;;;;;;6.45;1.20;;;5.40;99.90;;;;;;5088737;28;20043;-41
2023/01/16 02:12:07;;;;;;;5.60;1.38;;;5.40;99.90;;;;;;5087716;28;20097;-43
2023/01/16 02:14:37;;;;;;;4.18;1.20;;;5.40;99.90;;;;;;5088589;28;20024;-42
2023/01/16 02:20:09;;;;;;;5.00;1.30;;;5.40;99.90;;;;;;5088635;28;20070;-42
2023/01/16 02:22:41;;;;;;;5.75;1.23;;;5.40;99.90;;;;;;5088547;28;20020;-42
2023/01/16 02:25:28;;;;;;;7.55;1.45;;;5.40;99.90;;;;;;5088748;28;20090;-42
2023/01/16 02:28:12;;;;;;;2.55;1.42;;;5.50;99.90;;;;;;5084996;28;20024;-41
2023/01/16 02:31:06;;;;;;;6.15;1.08;;;5.50;99.90;;;;;;5086720;28;20261;-41
2023/01/16 02:34:09;;;;;;;3.58;1.25;;;5.50;99.90;;;;;;5088378;28;20223;-40
2023/01/16 02:36:58;;;;;;;5.40;1.33;;;5.50;99.90;;;;;;5085786;28;20549;-41
2023/01/16 02:39:59;;;;;;;4.25;1.20;;;5.50;99.90;;;;;;5085194;28;20077;-41
2023/01/16 02:42:43;;;;;;;1.75;1.05;;;5.50;99.90;;;;;;5084686;28;20032;-41
2023/01/16 02:45:23;;;;;;;3.67;1.38;;;5.50;99.90;;;;;;5087370;28;20082;-41
2023/01/16 02:47:59;;;;;;;4.40;1.13;;;5.60;99.90;;;;;;5088043;28;20505;-41
2023/01/16 02:50:51;;;;;;;4.78;1.35;;;5.60;99.90;;;;;;5088854;28;20031;-41
2023/01/16 02:53:24;;;;;;;3.17;1.30;;;5.60;99.90;;;;;;5086022;28;20103;-41
2023/01/16 02:55:53;;;;;;;6.32;2.35;;;5.60;99.90;;;;;;5087845;28;20027;-41
2023/01/16 02:58:21;;;;;;;3.78;1.58;;;5.50;99.90;;;;;;5088275;28;20065;-41
2023/01/16 03:00:52;;;;;;;6.00;1.05;;;5.50;99.90;;;;;;5088558;28;20107;-41
2023/01/16 03:03:40;;;;;;;9.20;2.35;;;5.50;99.90;;;;;;5086060;28;20027;-41
2023/01/16 03:06:28;;;;;;;10.05;1.42;;;5.50;99.90;;;;;;5085784;28;20028;-41
2023/01/16 03:09:05;;;;;;;2.60;1.15;;;5.50;99.90;;;;;;5086230;28;20123;-41
2023/01/16 03:11:38;;;;;;;4.85;1.10;;;5.60;99.90;;;;;;5087855;28;20421;-41
2023/01/16 03:14:28;;;;;;;5.57;1.20;;;5.60;99.90;;;;;;5088051;28;20434;-41
2023/01/16 03:17:05;;;;;;;1.92;0.95;;;5.70;99.90;;;;;;5087335;28;20119;-42
2023/01/16 03:19:50;;;;;;;2.28;1.00;;;5.60;99.90;;;;;;5088309;28;20070;-43
2023/01/16 03:22:30;;;;;;;4.68;1.10;;;5.60;99.90;;;;;;5085508;28;20016;-41
2023/01/16 03:25:18;;;;;;;7.50;1.00;;;5.50;99.90;;;;;;5085081;28;20050;-41
2023/01/16 03:28:22;;;;;;;1.90;1.10;;;5.50;99.90;;;;;;5086737;28;20028;-41
2023/01/16 03:31:06;;;;;;;7.38;1.00;;;5.40;99.90;;;;;;5080825;28;20044;-41
2023/01/16 03:34:02;;;;;;;6.95;1.20;;;5.40;99.90;;;;;;5087628;28;20017;-41
2023/01/16 03:36:50;;;;;;;8.15;1.50;;;5.40;99.90;;;;;;5086429;28;20422;-41
2023/01/16 03:39:20;;;;;;;2.60;0.90;;;5.40;99.90;;;;;;5082974;28;20382;-41
2023/01/16 03:41:47;;;;;;;4.97;1.13;;;5.30;99.90;;;;;;5087599;28;20028;-41
2023/01/16 03:44:25;;;;;;;5.55;1.25;;;5.30;99.90;;;;;;5087343;28;20258;-41
2023/01/16 03:46:51;;;;;;;2.42;1.05;;;5.30;99.90;;;;;;5087017;28;20035;-41
2023/01/16 03:49:38;;;;;;;4.50;1.15;;;5.30;99.90;;;;;;5087298;28;20564;-42
2023/01/16 03:52:08;;;;;;;2.13;1.13;;;5.20;99.90;;;;;;5085944;28;20061;-40
2023/01/16 03:54:52;;;;;;;8.23;1.10;;;5.10;99.90;;;;;;5086736;28;20164;-41
2023/01/16 03:57:22;;;;;;;7.30;1.33;;;5.10;99.90;;;;;;5084571;28;20043;-41
2023/01/16 03:59:49;;;;;;;2.28;0.93;;;5.10;99.90;;;;;;5087370;28;20490;-42
2023/01/16 04:02:20;;;;;;;2.15;1.00;;;5.00;99.90;;;;;;5087409;28;20518;-41
2023/01/16 04:05:00;;;;;;;3.53;1.08;;;5.00;99.90;;;;;;5086703;28;20483;-40
2023/01/16 04:07:29;;;;;;;;;;;4.90;99.90;;;;;;5087867;28;20478;-41
2023/01/16 04:09:58;;;;;;;3.08;1.20;;;4.90;99.90;;;;;;5084321;28;19908;-40
2023/01/16 04:12:34;;;;;;;4.63;1.40;;;4.90;99.90;;;;;;5087177;28;20020;-40
2023/01/16 04:15:03;;;;;;;4.18;1.15;;;4.90;99.90;;;;;;5085904;28;20020;-41
2023/01/16 04:17:29;;;;;;;4.07;1.08;;;4.90;99.90;;;;;;5087319;28;20479;-41
2023/01/16 04:19:55;;;;;;;3.75;0.90;;;5.00;99.90;;;;;;5084419;28;20012;-41
2023/01/16 04:22:27;;;;;;;4.65;1.30;;;5.00;99.90;;;;;;5087122;28;20103;-40
2023/01/16 04:24:55;;;;;;;3.22;1.00;;;4.90;99.90;;;;;;5086359;28;20013;-41
2023/01/16 04:27:21;;;;;;;7.03;1.02;;;4.90;99.90;;;;;;5087887;28;20474;-41
2023/01/16 04:29:47;;;;;;;3.80;0.98;;;4.90;99.90;;;;;;5091056;28;20039;-41
2023/01/16 04:32:13;;;;;;;4.13;1.25;;;5.00;99.90;;;;;;5090094;28;20020;-41
2023/01/16 04:34:38;;;;;;;2.85;1.20;;;4.90;99.90;;;;;;5089385;28;20023;-41
2023/01/16 04:37:05;;;;;;;5.30;1.40;;;4.90;99.90;;;;;;5089206;28;20056;-41
2023/01/16 04:39:30;;;;;;;12.02;4.20;;;4.90;99.90;;;;;;5089413;28;20043;-41
2023/01/16 04:41:56;;;;;;;5.90;1.45;;;4.90;99.90;;;;;;5089600;28;20418;-40
2023/01/16 04:44:21;;;;;;;4.03;0.90;;;4.80;99.90;;;;;;5089341;28;20026;-40
2023/01/16 04:46:47;;;;;;;5.07;1.65;;;4.80;99.90;;;;;;5087952;28;20016;-39
2023/01/16 04:49:13;;;;;;;2.53;1.20;;;4.70;99.90;;;;;;5090899;28;20406;-40
2023/01/16 04:51:39;;;;;;;3.92;1.05;;;4.70;99.90;;;;;;5089133;28;20027;-40
2023/01/16 04:54:05;;;;;;;6.10;1.42;;;4.70;99.90;;;;;;5090653;28;20483;-40
2023/01/16 04:56:32;;;;;;;5.95;1.23;;;4.70;99.90;;;;;;5090108;28;20045;-41
2023/01/16 04:58:58;;;;;;;4.45;1.80;;;4.70;99.90;;;;;;5087783;28;20016;-41
2023/01/16 05:01:24;;;;;;;4.05;1.08;;;4.70;99.90;;;;;;5090676;28;20028;-41
2023/01/16 05:03:49;;;;;;;5.20;1.17;;;4.70;99.90;;;;;;5090320;28;20027;-41
2023/01/16 05:06:16;;;;;;;5.30;0.95;;;4.60;99.90;;;;;;5089972;28;20391;-40
2023/01/16 05:08:41;;;;;;;5.20;1.10;;;4.60;99.90;;;;;;5089903;28;20127;-41
2023/01/16 05:11:07;;;;;;;4.18;1.45;;;4.60;99.90;;;;;;5090244;28;20507;-40
2023/01/16 05:13:32;;;;;;;2.97;1.10;;;4.60;99.90;;;;;;5090519;28;20020;-40
2023/01/16 05:15:58;;;;;;;5.65;1.20;;;4.60;99.90;;;;;;5090146;28;20337;-42
2023/01/16 05:18:24;;;;;;;2.17;1.45;;;4.50;99.90;;;;;;5088961;28;20028;-40
2023/01/16 05:20:50;;;;;;;5.82;1.33;;;4.50;99.90;;;;;;5090181;28;20113;-40
2023/01/16 05:23:16;;;;;;;5.10;1.08;;;4.50;99.90;;;;;;5089810;28;20443;-40
2023/01/16 05:25:42;;;;;;;6.43;1.30;;;4.50;99.90;;;;;;5089502;28;20026;-40
2023/01/16 05:28:08;;;;;;;3.13;1.00;;;4.50;99.90;;;;;;5089950;28;20016;-40
2023/01/16 05:30:33;;;;;;;2.45;1.10;;;4.50;99.90;;;;;;5090075;28;20457;-42
2023/01/16 05:32:59;;;;;;;3.85;1.20;;;4.50;99.90;;;;;;5090110;28;20501;-41
2023/01/16 05:35:24;;;;;;;5.28;1.30;;;4.50;99.90;;;;;;5089923;28;20028;-41
2023/01/16 05:37:50;;;;;;;6.32;1.10;;;4.50;99.90;;;;;;5087253;28;20107;-42
2023/01/16 05:40:16;;;;;;;5.32;1.83;;;4.50;99.90;;;;;;5088676;28;20016;-42
2023/01/16 05:42:42;;;;;;;2.40;0.90;;;4.40;99.90;;;;;;5089762;28;20055;-41
2023/01/16 05:45:08;;;;;;;4.15;0.95;;;4.40;99.90;;;;;;5089469;28;20458;-41
2023/01/16 05:47:34;;;;;;;3.10;1.05;;;4.40;99.90;;;;;;5089720;28;20110;-41
2023/01/16 05:49:59;;;;;;;2.20;1.15;;;4.50;99.90;;;;;;5090834;28;20057;-41
2023/01/16 05:52:25;;;;;;;2.08;1.40;;;4.50;99.90;;;;;;5090736;28;20028;-41
2023/01/16 05:54:52;;;;;;;2.83;1.17;;;4.50;99.90;;;;;;5087585;28;20102;-42
2023/01/16 05:57:17;;;;;;;5.25;1.83;;;4.40;99.90;;;;;;5090074;28;20020;-41
2023/01/16 05:59:45;;;;;;;7.65;1.52;;;4.40;99.90;;;;;;5090409;28;20020;-41
2023/01/16 06:02:11;;;;;;;3.60;1.40;;;4.30;99.90;;;;;;5087686;28;20020;-41
2023/01/16 06:04:37;;;;;;;2.75;1.15;;;4.30;99.90;;;;;;5091308;28;20023;-42
2023/01/16 06:07:03;;;;;;;2.80;0.95;;;4.30;99.90;;;;;;5097108;28;20023;-42
2023/01/16 06:09:28;;;;;;;1.58;0.90;;;4.30;99.90;;;;;;5094117;28;20020;-42
2023/01/16 06:11:54;;;;;;;3.85;0.98;;;4.20;99.90;;;;;;5099333;28;20500;-41
2023/01/16 06:14:19;;;;;;;6.05;1.30;;;4.20;99.90;;;;;;5090136;28;20516;-42
2023/01/16 06:16:45;;;;;;;4.80;1.00;;;4.20;99.90;;;;;;5089260;28;20016;-42
2023/01/16 06:19:10;;;;;;;3.83;1.10;;;4.20;99.90;;;;;;5089615;28;20162;-42
2023/01/16 06:21:36;;;;;;;1.42;1.20;;;4.20;99.90;;;;;;5089839;28;20455;-42
2023/01/16 06:24:02;;;;;;;6.97;1.08;;;4.10;99.90;;;;;;5089930;28;20046;-42
2023/01/16 06:26:27;;;;;;;2.80;1.00;;;4.20;99.90;;;;;;5089612;28;20367;-42
2023/01/16 06:28:55;;;;;;;2.20;1.08;;;4.10;99.90;;;;;;5089947;28;20032;-41
2023/01/16 06:31:21;;;;;;;6.68;1.27;;;4.10;99.90;;;;;;5088952;28;20020;-41
2023/01/16 06:33:47;;;;;;;5.72;1.55;;;4.20;99.90;;;;;;5090579;28;20485;-40
2023/01/16 06:36:13;;;;;;;6.38;1.90;;;4.20;99.90;;;;;;5089473;28;20035;-40
2023/01/16 06:38:38;;;;;;;7.68;1.38;;;4.20;99.90;;;;;;5089323;28;20020;-40
2023/01/16 06:41:04;;;;;;;3.40;1.10;;;4.20;99.90;;;;;;5089541;28;20031;-40
2023/01/16 06:43:30;;;;;;;2.58;1.33;;;4.20;99.90;;;;;;5087659;28;20020;-40
2023/01/16 06:45:56;;;;;;;2.60;1.13;;;4.10;99.90;;;;;;5088699;28;20071;-40
2023/01/16 06:48:22;;;;;;;2.35;1.17;;;4.10;99.90;;;;;;5086182;28;20142;-40
2023/01/16 06:50:47;;;;;;;5.25;1.20;;;4.20;99.90;;;;;;5084860;28;20028;-40
2023/01/16 06:53:14;;;;;;;2.40;2.05;;;4.20;99.90;;;;;;5087523;28;20069;-40
2023/01/16 06:55:40;;;;;;;3.90;2.47;;;4.30;99.90;;;;;;5086901;28;20020;-41
2023/01/16 06:58:07;;;;;;;1.30;1.10;;;4.20;99.90;;;;;;5091752;28;20492;-41
2023/01/16 07:00:34;;;;;;;2.58;1.05;;;4.20;99.90;;;;;;5085512;28;20055;-41
2023/01/16 07:03:00;;;;;;;5.10;1.70;;;4.20;99.90;;;;;;5065978;28;20394;-41
2023/01/16 07:05:28;;;;;;;3.08;1.23;;;4.20;99.90;;;;;;5082964;28;20028;-54
2023/01/16 07:07:53;;;;;;;3.90;1.48;;;4.10;99.90;;;;;;5091870;28;20071;-51
2023/01/16 07:10:20;;;;;;;2.83;1.13;;;4.10;99.90;;;;;;5088556;28;20494;-56
2023/01/16 07:12:46;;;;;;;5.03;1.60;;;4.10;99.90;;;;;;5089241;28;20047;-51
2023/01/16 07:23:33;;;;;;;3.15;1.30;;;3.90;99.90;;;;;;5069355;28;20040;-53
2023/01/16 07:26:01;;;;;;;5.82;1.60;;;3.90;99.90;;;;;;5075172;28;20035;-51
2023/01/16 07:28:27;;;;;;;4.47;1.42;;;3.90;99.90;;;;;;5089066;28;20039;-50
2023/01/16 07:30:55;;;;;;;3.70;1.60;;;4.00;99.90;;;;;;5089580;28;20437;-50
2023/01/16 07:33:20;;;;;;;6.60;1.52;;;3.90;99.90;;;;;;5088964;28;20077;-53
2023/01/16 07:35:46;;;;;;;5.63;1.60;;;3.90;99.90;;;;;;5088566;28;20028;-50
2023/01/16 07:38:11;;;;;;;4.13;1.77;;;3.90;99.90;;;;;;5087604;28;20017;-52
2023/01/16 07:40:37;;;;;;;6.25;2.10;;;3.90;99.90;;;;;;5088570;28;20544;-53
2023/01/16 07:43:03;;;;;;;3.60;1.65;;;3.90;99.90;;;;;;5088861;28;20391;-53
2023/01/16 07:45:28;;;;;;;2.55;1.45;;;4.00;99.90;;;;;;5088376;28;20406;-50
2023/01/16 07:47:54;;;;;;;4.70;1.40;;;4.00;99.90;;;;;;5089036;28;20042;-49
2023/01/16 07:50:20;;;;;;;4.50;1.58;;;4.00;99.90;;;;;;5088768;28;20020;-50
2023/01/16 07:52:45;;;;;;;3.75;1.30;;;4.00;99.90;;;;;;5088644;28;20085;-49
2023/01/16 07:55:12;;;;;;;4.50;1.30;;;4.10;99.90;;;;;;5086659;28;20016;-50
2023/01/16 07:57:38;;;;;;;2.95;1.50;;;4.10;99.90;;;;;;5086721;28;20259;-50
2023/01/16 08:00:10;;;;;;;2.90;1.65;;;4.10;99.90;;;;;;5087020;28;20024;-50
2023/01/16 08:02:35;;;;;;;2.63;1.42;;;4.10;99.90;;;;;;5087541;28;20073;-52
2023/01/16 08:05:01;;;;;;;4.72;1.40;;;4.10;99.90;;;;;;5087129;28;20024;-53
2023/01/16 08:07:27;;;;;;;6.25;2.22;;;4.20;99.90;;;;;;5087592;28;20422;-51
2023/01/16 08:09:52;;;;;;;4.63;1.27;;;4.20;99.90;;;;;;5090110;28;20032;-50
2023/01/16 08:12:18;;;;;;;3.95;1.88;;;4.20;99.90;;;;;;5086352;28;20032;-49
2023/01/16 08:14:43;;;;;;;3.20;1.38;;;4.30;99.90;;;;;;5087067;28;20019;-52
2023/01/16 08:17:09;;;;;;;2.95;1.27;;;4.30;99.90;;;;;;5087604;28;20371;-52
2023/01/16 08:19:34;;;;;;;5.60;1.63;;;4.40;99.90;;;;;;5087730;28;20533;-51
2023/01/16 08:22:00;;;;;;;4.68;1.75;;;4.50;99.90;;;;;;5087839;28;20467;-51
2023/01/16 08:24:25;;;;;;;3.08;1.67;;;4.40;99.90;;;;;;5086132;28;20043;-51
2023/01/16 08:26:55;;;;;;;3.15;1.30;;;4.40;99.90;;;;;;5096144;28;20027;-53
2023/01/16 08:29:21;;;;;;;4.33;1.57;;;4.40;99.90;;;;;;5089074;28;20032;-54
2023/01/16 08:31:47;;;;;;;2.53;1.42;;;4.50;99.90;;;;;;5088717;28;20024;-50
2023/01/16 08:34:13;;;;;;;6.90;1.55;;;4.50;99.90;;;;;;5088024;28;20034;-50
2023/01/16 08:36:38;;;;;;;4.25;1.48;;;4.50;99.90;;;;;;5086733;28;20044;-50
2023/01/16 08:39:04;;;;;;;3.92;1.92;;;4.60;99.90;;;;;;5088148;28;20395;-50
2023/01/16 08:52:40;;;;;;;1.80;1.20;;;4.80;99.90;;;;;;5089015;28;20026;-50
2023/01/16 08:55:06;;;;;;;1.63;1.10;;;4.90;99.90;;;;;;5088413;28;20031;-49
2023/01/16 08:57:32;;;;;;;4.55;1.20;;;5.00;99.90;;;;;;5089393;28;20055;-50
2023/01/16 08:59:57;;;;;;;4.90;1.85;;;5.00;99.90;;;;;;5089467;28;20082;-40
2023/01/16 09:02:24;;;;;;;3.65;1.50;;;5.20;99.90;;;;;;5088997;28;20112;-40
2023/01/16 09:04:50;;;;;;;3.75;1.45;;;5.30;99.90;;;;;;5087041;28;20059;-40
2023/01/16 09:07:16;;;;;;;5.45;1.70;;;5.30;99.90;;;;;;5087998;28;20032;-39
2023/01/16 09:09:42;;;;;;;5.30;1.42;;;5.30;99.90;;;;;;5087610;28;20269;-41
2023/01/16 09:15:16;;;;;;;4.78;1.50;;;5.60;99.90;;;;;;5085530;28;20329;-41
2023/01/16 09:17:41;;;;;;;6.45;1.48;;;5.70;99.90;;;;;;5088884;28;20103;-40
2023/01/16 09:20:08;;;;;;;5.95;2.60;;;5.80;99.90;;;;;;5090297;28;20103;-41
2023/01/16 09:22:34;;;;;;;3.97;1.52;;;5.80;99.90;;;;;;5091573;28;20016;-40
2023/01/16 09:24:59;;;;;;;4.30;1.67;;;6.00;99.90;;;;;;5089694;28;20550;-40
2023/01/16 09:27:25;;;;;;;6.93;1.70;;;6.00;99.90;;;;;;5090935;28;20059;-39
2023/01/16 09:29:51;;;;;;;3.40;1.50;;;5.90;99.90;;;;;;5089932;28;20162;-41
2023/01/16 09:32:18;;;;;;;2.95;1.50;;;5.90;99.90;;;;;;5091004;28;20069;-40
2023/01/16 09:34:44;;;;;;;2.08;1.30;;;5.70;99.90;;;;;;5090902;28;20035;-41
2023/01/16 09:37:09;;;;;;;2.90;1.48;;;5.80;99.90;;;;;;5090731;28;20223;-52
2023/01/16 09:39:35;;;;;;;4.55;1.88;;;5.80;99.90;;;;;;5089518;28;20020;-51
2023/01/16 09:45:19;;;;;;;3.17;1.17;;;6.00;99.90;;;;;;5090183;28;20566;-51
2023/01/16 09:47:52;;;;;;;5.75;1.30;;;6.00;99.90;;;;;;5084094;28;20441;-52
2023/01/16 09:50:26;;;;;;;5.25;1.58;;;6.00;99.90;;;;;;5091324;28;20059;-50
2023/01/16 09:58:35;;;;;;;5.10;1.65;;;6.10;99.90;;;;;;5094008;28;20033;-52
2023/01/16 10:01:26;;;;;;;4.18;1.45;;;6.20;99.90;;;;;;5095972;28;20515;-51
2023/01/16 10:04:13;;;;;;;4.00;1.25;;;6.20;99.90;;;;;;5089211;28;20023;-51
2023/01/16 10:07:04;;;;;;;3.85;2.83;;;6.20;99.90;;;;;;5090075;28;20048;-50
2023/01/16 10:09:49;;;;;;;8.85;1.02;;;6.30;99.90;;;;;;5088751;28;20142;-50
2023/01/16 10:12:14;;;;;;;4.20;1.40;;;6.40;99.90;;;;;;5090531;28;20116;-51
2023/01/16 10:14:55;;;;;;;3.30;1.00;;;6.40;99.90;;;;;;5086862;28;20508;-49
2023/01/16 10:17:47;;;;;;;4.70;1.33;;;6.40;99.90;;;;;;5089008;28;20020;-52
2023/01/16 10:20:42;;;;;;;1.88;1.48;;;6.60;99.90;;;;;;5090898;28;20119;-52
2023/01/16 10:23:18;;;;;;;3.03;1.60;;;6.50;99.90;;;;;;5089555;28;20016;-51
2023/01/16 10:26:06;;;;;;;2.97;1.20;;;6.60;99.90;;;;;;5089884;28;20100;-54
2023/01/16 10:28:52;;;;;;;5.47;1.52;;;6.70;99.90;;;;;;5090888;28;20036;-53
2023/01/16 10:31:26;;;;;;;4.07;1.10;;;6.60;99.90;;;;;;5088399;28;20042;-42
2023/01/16 10:34:08;;;;;;;4.72;0.93;;;6.60;99.90;;;;;;5090540;28;20031;-42
2023/01/16 10:36:40;;;;;;;2.63;1.00;;;6.70;99.90;;;;;;5088931;28;20587;-41
2023/01/16 10:39:08;;;;;;;2.80;1.10;;;6.90;99.90;;;;;;5089610;28;20121;-42
2023/01/16 10:50:20;;;;;;;3.00;1.17;;;8.70;99.90;;;;;;5087495;28;20031;-54
2023/01/16 10:52:47;;;;;;;6.15;1.13;;;9.60;99.90;;;;;;5088741;28;20028;-53
2023/01/16 10:55:14;;;;;;;1.77;1.08;;;9.60;99.90;;;;;;5089216;28;20062;-53
2023/01/16 10:57:48;;;;;;;3.67;1.55;;;9.90;99.90;;;;;;5089713;28;20076;-55
2023/01/16 11:00:28;;;;;;;2.65;1.80;;;10.00;99.90;;;;;;5087881;28;20027;-54
2023/01/16 11:02:58;;;;;;;2.67;1.27;;;9.90;99.90;;;;;;5087415;28;20107;-54
2023/01/16 11:05:32;;;;;;;3.70;1.25;;;10.10;99.70;;;;;;5088047;28;20461;-52
2023/01/16 11:08:14;;;;;;;3.28;1.45;;;10.10;99.50;;;;;;5089769;28;20013;-52
2023/01/16 11:10:43;;;;;;;3.35;1.20;;;10.40;99.30;;;;;;5087872;28;20055;-54
2023/01/16 11:19:20;;;;;;;1.52;1.00;;;10.60;97.50;;;;;;5084120;28;20027;-54
2023/01/16 11:22:08;;;;;;;6.20;1.30;;;10.40;97.50;;;;;;5067874;28;20021;-54
2023/01/16 11:24:35;;;;;;;4.05;1.13;;;10.20;98.00;;;;;;5067529;28;20017;-52
2023/01/16 11:27:06;;;;;;;2.28;1.00;;;9.90;98.50;;;;;;5083841;28;20027;-54
2023/01/16 11:29:38;;;;;;;2.95;1.38;;;9.80;98.20;;;;;;5089314;28;20066;-52
2023/01/16 11:32:11;;;;;;;4.25;1.17;;;9.40;99.20;;;;;;5089491;28;20563;-52
2023/01/16 11:34:43;;;;;;;2.85;1.10;;;9.30;99.10;;;;;;5088736;28;20467;-52
2023/01/16 11:37:13;;;;;;;2.63;1.30;;;9.20;99.60;;;;;;5085552;28;20584;-53
2023/01/16 11:39:39;;;;;;;2.38;0.95;;;9.00;99.80;;;;;;5088936;28;20059;-52
2023/01/16 11:47:44;;;;;;;2.45;1.35;;;7.50;99.90;;;;;;5086535;28;20736;-53
2023/01/16 11:50:29;;;;;;;2.78;1.20;;;7.40;99.90;;;;;;5087966;28;20032;-54
2023/01/16 11:52:54;;;;;;;4.15;1.15;;;7.40;99.90;;;;;;5084802;28;20048;-52
2023/01/16 11:55:25;;;;;;;4.20;1.00;;;7.20;99.90;;;;;;5087501;28;20129;-40
2023/01/16 11:58:10;;;;;;;4.72;1.60;;;7.20;99.90;;;;;;5086949;28;20024;-40
2023/01/16 12:01:01;;;;;;;6.38;1.30;;;7.00;99.90;;;;;;5088295;28;20027;-40
2023/01/16 12:03:47;;;;;;;9.65;2.38;;;7.00;99.90;;;;;;5088257;28;20024;-41
2023/01/16 12:06:40;;;;;;;6.35;1.25;;;6.90;99.90;;;;;;5088416;28;20110;-40
2023/01/16 12:09:26;;;;;;;3.70;1.50;;;7.00;99.90;;;;;;5089205;28;20050;-43
2023/01/16 12:15:16;;;;;;;5.50;1.15;;;7.00;99.90;;;;;;5085261;28;20039;-40
2023/01/16 12:18:19;;;;;;;3.13;1.33;;;6.80;99.90;;;;;;5069657;28;20028;-41
2023/01/16 12:21:14;;;;;;;9.90;2.35;;;6.90;99.90;;;;;;5068831;28;20135;-41
2023/01/16 12:24:18;;;;;;;4.07;1.40;;;7.00;99.90;;;;;;5067060;28;20086;-42
2023/01/16 12:27:01;;;;;;;3.45;1.40;;;6.90;99.90;;;;;;5080288;28;20107;-40
2023/01/16 12:29:26;;;;;;;4.47;1.15;;;6.70;99.90;;;;;;5088206;28;20028;-40
2023/01/16 12:32:22;;;;;;;2.42;0.98;;;6.70;99.90;;;;;;5084241;28;20434;-41
2023/01/16 12:35:03;;;;;;;5.07;1.48;;;6.70;99.90;;;;;;5087477;28;20074;-40
2023/01/16 12:37:35;;;;;;;;;;;6.80;99.90;;;;;;5088180;28;20035;-40
2023/01/16 12:40:27;;;;;;;2.67;1.30;;;6.80;99.90;;;;;;5087856;28;19904;-42
2023/01/16 12:43:21;;;;;;;2.13;1.00;;;6.90;99.90;;;;;;5081615;28;20487;-41
2023/01/16 12:45:49;;;;;;;5.35;1.40;;;6.90;99.90;;;;;;5087241;28;20047;-41
2023/01/16 12:48:27;;;;;;;7.32;1.35;;;6.80;99.90;;;;;;5088294;28;20380;-42
2023/01/16 12:51:10;;;;;;;1.70;0.98;;;6.80;99.90;;;;;;5091659;28;20016;-41
2023/01/16 12:54:13;;;;;;;1.95;1.20;;;6.90;99.90;;;;;;5092168;28;20020;-41
2023/01/16 12:56:53;;;;;;;2.30;1.27;;;7.10;99.90;;;;;;5091452;28;20228;-42
2023/01/16 12:59:39;;;;;;;;;;;7.00;99.90;;;;;;5092572;28;20016;-42
2023/01/16 13:02:14;;;;;;;4.72;1.85;;;7.00;99.90;;;;;;5087202;28;19904;-41
2023/01/16 13:04:55;;;;;;;4.15;1.88;;;6.90;99.90;;;;;;5083329;28;20032;-41
2023/01/16 13:07:23;;;;;;;3.90;1.60;;;6.70;99.90;;;;;;5091613;28;20530;-44
2023/01/16 13:16:14;;;;;;;5.07;1.55;;;6.80;99.90;;;;;;5088244;28;20430;-55
2023/01/16 13:18:47;;;;;;;2.00;1.23;;;6.80;99.90;;;;;;5061282;28;20028;-54
2023/01/16 13:21:25;;;;;;;5.97;1.50;;;6.80;99.90;;;;;;5071097;28;20021;-53
2023/01/16 13:24:20;;;;;;;6.30;1.20;;;6.70;99.90;;;;;;5082350;28;20019;-54
2023/01/16 13:26:53;;;;;;;3.03;1.10;;;6.70;99.90;;;;;;5083825;28;20391;-52
2023/01/16 13:29:48;;;;;;;3.78;1.40;;;6.60;99.90;;;;;;5091228;28;20020;-53
2023/01/16 13:32:28;;;;;;;2.55;1.20;;;6.60;99.90;;;;;;5091091;28;20056;-53
2023/01/16 13:34:59;;;;;;;;;;;6.60;99.90;;;;;;5091509;28;20028;-54
2023/01/16 13:38:23;;;;;;;2.20;1.23;;;6.60;99.90;;;;;;5090692;28;20014;-55
2023/01/16 13:41:06;;;;;;;5.35;1.40;;;6.60;99.90;;;;;;5086428;28;20046;-54
2023/01/16 13:46:23;;;;;;;1.50;1.00;;;6.60;99.90;;;;;;5087927;28;20043;-54
2023/01/16 13:48:56;;;;;;;4.65;1.23;;;6.50;99.90;;;;;;5090380;28;20024;-51
2023/01/16 13:51:25;;;;;;;3.85;1.73;;;6.60;99.90;;;;;;5089353;28;20019;-43
2023/01/16 13:53:57;;;;;;;3.65;1.55;;;6.50;99.90;;;;;;5089607;28;20028;-42
2023/01/16 13:56:24;;;;;;;5.88;1.63;;;6.60;99.90;;;;;;5086859;28;20066;-41
2023/01/16 13:58:54;;;;;;;4.57;1.27;;;6.60;99.90;;;;;;5088450;28;20403;-42
2023/01/16 14:01:38;;;;;;;4.25;1.48;;;6.60;99.90;;;;;;5084946;28;20239;-41
2023/01/16 14:04:16;;;;;;;3.72;1.10;;;6.70;99.90;;;;;;5087038;28;20123;-41
2023/01/16 14:06:49;;;;;;;4.43;1.23;;;6.70;99.90;;;;;;5087361;28;20016;-41
2023/01/16 14:09:18;;;;;;;4.28;1.55;;;6.70;99.90;;;;;;5089824;28;20024;-43
2023/01/16 14:12:20;;;;;;;2.92;1.30;;;6.80;99.90;;;;;;5089737;28;20095;-42
2023/01/16 14:17:50;;;;;;;2.38;1.02;;;6.80;99.90;;;;;;5088693;28;20330;-42
2023/01/16 14:20:42;;;;;;;2.35;1.10;;;7.00;99.90;;;;;;5088470;28;20035;-45
2023/01/16 14:26:31;;;;;;;2.20;1.00;;;7.00;99.90;;;;;;5088266;28;20054;-42
2023/01/16 14:29:00;;;;;;;4.63;1.40;;;7.10;99.90;;;;;;5089425;28;20028;-43
2023/01/16 14:31:40;;;;;;;5.68;1.20;;;7.00;99.90;;;;;;5089619;28;20028;-42
2023/01/16 14:34:17;;;;;;;3.65;1.63;;;7.00;99.90;;;;;;5086625;28;20024;-42
2023/01/16 14:36:47;;;;;;;6.43;1.60;;;6.90;99.90;;;;;;5080580;28;20085;-41